EGAC/BHD METAR and TAF weather

Enter ICAO airport designator
Station Type Date Time Source
EGAC METAR 2019/02/23 16:50 UTC NOAA

EGAC 231650Z AUTO 14010KT 9999 BKN022/// BKN027/// 12/10 Q1027


Station Type Date Time Source
EGAC Decoded METAR 2019/02/23 16:50 UTC NOAA

Belfast / Harbour, United Kingdom (EGAC) 54-36N 005-53W 0M
Feb 23, 2019 - 11:50 AM EST / 2019.02.23 1650 UTC
Wind: from the SE (140 degrees) at 12 MPH (10 KT):0
Visibility: greater than 7 mile(s):0
Sky conditions: mostly cloudy
Temperature: 53 F (12 C)
Dew Point: 50 F (10 C)
Relative Humidity: 87%
Pressure (altimeter): 30.33 in. Hg (1027 hPa)
ob: EGAC 231650Z AUTO 14010KT 9999 BKN022/// BKN027/// 12/10 Q1027
cycle: 17

Station Type Date Time Source
EGAC TAF UTC NOAA

Error!


Example: see airport list